createdAt,value
2023-01-13T00:01:23.501Z,17.52
2023-01-13T00:03:50.603Z,12.98
2023-01-13T00:06:19.658Z,24.15
2023-01-13T00:08:49.891Z,18.67
2023-01-13T00:11:16.516Z,23.05
2023-01-13T00:13:43.079Z,18.15
2023-01-13T00:16:18.118Z,15.68
2023-01-13T00:18:45.193Z,29.63
2023-01-13T00:21:14.313Z,18.05
2023-01-13T00:23:40.885Z,17.83
2023-01-13T00:26:10.357Z,20.40
2023-01-13T00:28:37.200Z,13.98
2023-01-13T00:31:10.963Z,24.08
2023-01-13T00:33:37.859Z,15.10
2023-01-13T00:36:06.209Z,15.43
2023-01-13T00:38:34.520Z,24.67
2023-01-13T00:41:08.748Z,15.55
2023-01-13T00:43:36.402Z,15.95
2023-01-13T00:46:04.482Z,23.42
2023-01-13T00:48:32.430Z,16.48
2023-01-13T00:51:05.555Z,16.70
2023-01-13T00:53:41.071Z,23.50
2023-01-13T00:56:18.060Z,19.80
2023-01-13T00:58:46.035Z,30.23
2023-01-13T01:01:16.381Z,22.50
2023-01-13T01:03:43.119Z,25.73
2023-01-13T01:06:13.408Z,23.38
2023-01-13T01:08:40.346Z,20.58
2023-01-13T01:11:09.156Z,17.38
2023-01-13T01:13:36.456Z,18.92
2023-01-13T01:16:13.952Z,20.67
2023-01-13T01:18:43.140Z,22.73
2023-01-13T01:21:10.465Z,19.92
2023-01-13T01:23:38.466Z,35.50
2023-01-13T01:26:11.669Z,26.60
2023-01-13T01:28:38.549Z,29.15
2023-01-13T01:31:17.887Z,21.70
2023-01-13T01:33:46.352Z,22.73
2023-01-13T01:36:14.205Z,32.13
2023-01-13T01:38:40.825Z,32.20
2023-01-13T01:41:07.480Z,30.23
2023-01-13T01:44:00.510Z,29.27
2023-01-13T01:46:35.379Z,30.23
2023-01-13T01:49:14.062Z,24.77
2023-01-13T01:52:14.624Z,25.15
2023-01-13T01:54:48.210Z,24.38
2023-01-13T01:57:24.437Z,23.98
2023-01-13T01:59:51.074Z,19.85
2023-01-13T02:02:17.997Z,24.88
2023-01-13T02:04:50.940Z,27.63
2023-01-13T02:07:26.249Z,17.80
2023-01-13T02:09:55.176Z,19.65
2023-01-13T02:12:31.939Z,22.77
2023-01-13T02:15:12.411Z,23.35
2023-01-13T02:18:17.787Z,19.98
2023-01-13T02:20:56.219Z,25.20
2023-01-13T02:23:40.966Z,20.23
2023-01-13T02:26:10.006Z,27.15
2023-01-13T02:29:43.532Z,21.77
2023-01-13T02:32:33.474Z,37.35
2023-01-13T02:35:18.223Z,22.63
2023-01-13T02:37:46.025Z,32.45
2023-01-13T02:40:21.435Z,24.33
2023-01-13T02:43:51.833Z,32.75
2023-01-13T02:46:29.822Z,29.25
2023-01-13T02:48:59.861Z,27.25
2023-01-13T02:51:32.339Z,27.60
2023-01-13T02:54:02.072Z,27.88
2023-01-13T02:56:30.224Z,24.90
2023-01-13T02:58:58.642Z,28.35
2023-01-13T03:01:25.240Z,24.00
2023-01-13T03:03:51.735Z,22.58
2023-01-13T03:07:01.898Z,27.45
2023-01-13T03:09:43.560Z,21.77
2023-01-13T03:12:26.677Z,24.63
2023-01-13T03:15:19.019Z,31.23
2023-01-13T03:18:05.920Z,27.67
2023-01-13T03:20:41.198Z,20.42
2023-01-13T03:23:17.911Z,21.40
2023-01-13T03:25:57.179Z,17.77
2023-01-13T03:28:31.080Z,21.17
2023-01-13T03:31:04.747Z,27.73
2023-01-13T03:33:37.326Z,23.40
2023-01-13T03:36:07.973Z,23.20
2023-01-13T03:38:39.195Z,28.42
2023-01-13T03:41:10.505Z,16.67
2023-01-13T03:44:00.164Z,26.25
2023-01-13T03:46:42.349Z,25.80
2023-01-13T03:49:13.168Z,27.42
2023-01-13T03:51:43.885Z,18.85
2023-01-13T03:54:12.668Z,23.67
2023-01-13T03:56:47.384Z,31.02
2023-01-13T03:59:22.508Z,25.63
2023-01-13T04:01:57.160Z,15.32
2023-01-13T04:04:28.970Z,27.80
2023-01-13T04:07:05.286Z,23.85
2023-01-13T04:09:34.453Z,17.67
2023-01-13T04:12:11.212Z,26.23
2023-01-13T04:14:37.910Z,19.45
2023-01-13T04:17:05.127Z,15.48
2023-01-13T04:19:32.982Z,18.73
2023-01-13T04:21:59.607Z,18.23
2023-01-13T04:24:26.255Z,22.52
2023-01-13T04:26:52.670Z,16.05
2023-01-13T04:29:19.120Z,16.20
2023-01-13T04:31:45.506Z,14.60
2023-01-13T04:34:12.039Z,11.05
2023-01-13T04:36:38.634Z,17.73
2023-01-13T04:39:05.155Z,26.50
2023-01-13T04:41:54.353Z,13.38
2023-01-13T04:44:20.678Z,17.42
2023-01-13T04:46:47.302Z,12.40
2023-01-13T04:49:13.899Z,14.98
2023-01-13T04:51:40.275Z,10.85
2023-01-13T04:54:09.445Z,16.88
2023-01-13T04:56:35.832Z,12.10
2023-01-13T04:59:02.247Z,11.27
2023-01-13T05:01:28.682Z,8.30
2023-01-13T05:03:55.104Z,10.50
2023-01-13T05:06:23.942Z,11.60
2023-01-13T05:08:53.402Z,14.05
2023-01-13T05:11:38.515Z,12.48
2023-01-13T05:14:23.247Z,11.48
2023-01-13T05:17:04.528Z,9.35
2023-01-13T05:19:41.774Z,11.77
2023-01-13T05:22:26.453Z,9.93
2023-01-13T05:25:11.267Z,11.07
2023-01-13T05:27:37.813Z,11.05
2023-01-13T05:30:05.393Z,14.55
2023-01-13T05:32:33.415Z,14.10
2023-01-13T05:34:59.800Z,8.13
2023-01-13T05:37:27.632Z,11.07
2023-01-13T05:40:12.922Z,15.95
2023-01-13T05:42:57.785Z,14.27
2023-01-13T05:45:24.464Z,19.67
2023-01-13T05:47:50.838Z,15.23
2023-01-13T05:50:17.542Z,13.63
2023-01-13T05:52:44.480Z,11.23
2023-01-13T05:55:11.740Z,9.88
2023-01-13T05:57:38.254Z,14.70
2023-01-13T06:00:05.728Z,13.82
2023-01-13T06:02:32.339Z,15.60
2023-01-13T06:04:58.808Z,17.48
2023-01-13T06:07:25.249Z,12.95
2023-01-13T06:09:51.708Z,13.77
2023-01-13T06:12:19.395Z,12.38
2023-01-13T06:14:45.835Z,17.90
2023-01-13T06:17:14.327Z,14.52
2023-01-13T06:19:41.434Z,14.10
2023-01-13T06:22:22.955Z,19.75
2023-01-13T06:24:50.697Z,13.93
2023-01-13T06:27:18.407Z,13.05
2023-01-13T06:29:44.857Z,16.58
2023-01-13T06:32:18.759Z,15.98
2023-01-13T06:34:49.580Z,19.27
2023-01-13T06:37:19.818Z,16.23
2023-01-13T06:39:46.426Z,13.88
2023-01-13T06:42:31.580Z,11.55
2023-01-13T06:44:58.086Z,18.08
2023-01-13T06:47:24.545Z,21.98
2023-01-13T06:49:51.128Z,19.52
2023-01-13T06:52:17.493Z,17.80
2023-01-13T06:54:46.770Z,14.07
2023-01-13T06:57:13.428Z,14.73
2023-01-13T06:59:39.871Z,14.65
2023-01-13T07:02:08.963Z,19.23
2023-01-13T07:04:35.402Z,14.38
2023-01-13T07:07:01.900Z,18.10
2023-01-13T07:09:28.371Z,16.40
2023-01-13T07:11:54.915Z,17.38
2023-01-13T07:14:40.042Z,16.60
2023-01-13T07:17:06.504Z,10.40
2023-01-13T07:19:32.993Z,18.15
2023-01-13T07:22:02.450Z,18.67
2023-01-13T07:24:28.950Z,12.57
2023-01-13T07:26:55.461Z,16.73
2023-01-13T07:29:21.855Z,15.70
2023-01-13T07:31:50.106Z,19.63
2023-01-13T07:34:16.812Z,14.07
2023-01-13T07:36:43.187Z,14.25
2023-01-13T07:39:09.693Z,19.73
2023-01-13T07:41:54.765Z,12.57
2023-01-13T07:44:21.369Z,18.60
2023-01-13T07:46:48.002Z,14.82
2023-01-13T07:49:14.450Z,17.50
2023-01-13T07:51:40.932Z,17.05
2023-01-13T07:54:07.360Z,13.45
2023-01-13T07:56:33.929Z,14.88
2023-01-13T07:59:00.843Z,12.63
2023-01-13T08:01:28.032Z,12.55
2023-01-13T08:03:56.213Z,24.13
2023-01-13T08:06:22.715Z,14.23
2023-01-13T08:08:49.134Z,21.67
2023-01-13T08:11:15.631Z,15.70
2023-01-13T08:13:42.072Z,17.58
2023-01-13T08:16:11.866Z,18.48
2023-01-13T08:18:38.617Z,17.10
2023-01-13T08:21:08.343Z,19.10
2023-01-13T08:23:35.590Z,19.20
2023-01-13T08:26:06.700Z,20.08
2023-01-13T08:28:33.138Z,15.52
2023-01-13T08:31:01.749Z,17.48
2023-01-13T08:33:28.961Z,11.48
2023-01-13T08:35:56.169Z,16.63
2023-01-13T08:38:23.429Z,15.90
2023-01-13T08:40:50.477Z,18.52
2023-01-13T08:43:17.021Z,19.35
2023-01-13T08:45:43.479Z,19.58
2023-01-13T08:48:10.200Z,18.10
2023-01-13T08:50:36.689Z,14.48
2023-01-13T08:53:03.443Z,11.90
2023-01-13T08:55:29.909Z,17.33
2023-01-13T08:58:14.160Z,14.75
2023-01-13T09:00:42.190Z,20.95
2023-01-13T09:03:08.650Z,15.15
2023-01-13T09:05:35.990Z,16.00
2023-01-13T09:08:02.433Z,14.98
2023-01-13T09:10:28.802Z,17.65
2023-01-13T09:13:13.628Z,18.65
2023-01-13T09:15:42.529Z,24.20
2023-01-13T09:18:09.553Z,16.75
2023-01-13T09:20:36.045Z,16.50
2023-01-13T09:23:02.977Z,16.38
2023-01-13T09:25:29.443Z,15.10
2023-01-13T09:27:56.725Z,13.82
2023-01-13T09:30:23.448Z,14.90
2023-01-13T09:32:49.877Z,20.88
2023-01-13T09:35:18.857Z,20.70
2023-01-13T09:37:45.289Z,30.25
2023-01-13T09:40:22.843Z,22.63
2023-01-13T09:43:13.324Z,14.45
2023-01-13T09:45:56.166Z,14.75
2023-01-13T09:48:51.738Z,16.52
2023-01-13T09:51:28.001Z,13.20
2023-01-13T09:53:59.341Z,23.63
2023-01-13T09:56:26.338Z,17.73
2023-01-13T09:58:52.795Z,17.73
2023-01-13T10:01:33.548Z,19.35
2023-01-13T10:04:04.772Z,18.98
2023-01-13T10:06:39.382Z,16.57
2023-01-13T10:09:06.140Z,19.98
2023-01-13T10:11:58.716Z,22.42
2023-01-13T10:17:04.226Z,11.88
2023-01-13T10:19:59.828Z,14.35
2023-01-13T10:23:07.494Z,18.17
2023-01-13T10:26:15.365Z,10.45
2023-01-13T10:28:41.764Z,24.08
2023-01-13T10:31:14.741Z,13.10
2023-01-13T10:33:41.207Z,17.13
2023-01-13T10:36:16.793Z,14.55
2023-01-13T10:38:48.426Z,27.40
2023-01-13T10:41:15.014Z,22.17
2023-01-13T10:43:45.438Z,16.48
2023-01-13T10:46:19.460Z,19.42
2023-01-13T10:48:58.781Z,16.92
2023-01-13T10:51:29.780Z,11.88
2023-01-13T10:54:20.246Z,15.65
2023-01-13T10:56:46.910Z,10.90
2023-01-13T10:59:24.630Z,12.65
2023-01-13T11:02:25.396Z,14.18
2023-01-13T11:04:55.377Z,13.23
2023-01-13T11:07:35.824Z,13.10
2023-01-13T11:10:23.021Z,13.48
2023-01-13T11:12:58.275Z,15.68
2023-01-13T11:15:38.461Z,5.88
2023-01-13T11:18:23.041Z,10.38
2023-01-13T11:20:51.628Z,10.32
2023-01-13T11:23:28.389Z,10.88
2023-01-13T11:26:01.293Z,14.05
2023-01-13T11:28:56.036Z,9.70
2023-01-13T11:31:34.778Z,14.07
2023-01-13T11:34:18.153Z,10.38
2023-01-13T11:36:50.987Z,15.98
2023-01-13T11:39:59.014Z,16.38
2023-01-13T11:42:40.366Z,16.38
2023-01-13T11:45:31.368Z,17.70
2023-01-13T11:48:01.611Z,13.52
2023-01-13T11:50:42.248Z,13.38
2023-01-13T11:53:22.481Z,11.15
2023-01-13T11:56:24.173Z,17.35
2023-01-13T11:58:58.093Z,14.30
2023-01-13T12:01:37.280Z,15.55
2023-01-13T12:04:25.272Z,9.05
2023-01-13T12:07:16.651Z,14.98
2023-01-13T12:10:13.195Z,11.73
2023-01-13T12:12:58.303Z,13.55
2023-01-13T12:15:36.586Z,12.75
2023-01-13T12:18:15.051Z,17.45
2023-01-13T12:21:00.011Z,10.80
2023-01-13T12:23:35.082Z,7.57
2023-01-13T12:26:07.883Z,9.25
2023-01-13T12:29:04.776Z,10.20
2023-01-13T12:31:36.631Z,10.70
2023-01-13T12:34:22.278Z,12.40
2023-01-13T12:37:17.277Z,10.35
2023-01-13T12:40:05.396Z,17.38
2023-01-13T12:43:09.207Z,6.80
2023-01-13T12:45:35.734Z,7.85
2023-01-13T12:48:02.214Z,10.75
2023-01-13T12:50:29.099Z,10.93
2023-01-13T12:52:57.672Z,8.85
2023-01-13T12:55:25.940Z,13.40
2023-01-13T12:58:02.454Z,12.90
2023-01-13T13:00:52.978Z,13.40
2023-01-13T13:03:28.052Z,12.55
2023-01-13T13:06:06.111Z,9.15
2023-01-13T13:09:10.549Z,12.48
2023-01-13T13:11:59.191Z,7.95
2023-01-13T13:14:37.723Z,7.25
2023-01-13T13:17:25.286Z,10.50
2023-01-13T13:19:52.371Z,10.48
2023-01-13T13:22:50.487Z,8.48
2023-01-13T13:25:22.505Z,9.20
2023-01-13T13:28:15.719Z,6.95
2023-01-13T13:30:52.261Z,9.38
2023-01-13T13:33:43.018Z,8.52
2023-01-13T13:36:09.423Z,8.52
2023-01-13T13:39:29.297Z,11.20
2023-01-13T13:42:23.102Z,11.05
2023-01-13T13:45:09.437Z,8.98
2023-01-13T13:47:39.444Z,9.57
2023-01-13T13:50:16.080Z,11.82
2023-01-13T13:53:18.307Z,10.70
2023-01-13T13:56:02.038Z,17.50
2023-01-13T13:58:31.341Z,8.35
2023-01-13T14:00:58.445Z,9.45
2023-01-13T14:03:28.852Z,10.07
2023-01-13T14:06:01.358Z,16.63
2023-01-13T14:08:29.898Z,15.10
2023-01-13T14:10:56.598Z,5.90
2023-01-13T14:13:27.533Z,12.93
2023-01-13T14:15:59.619Z,14.63
2023-01-13T14:20:55.067Z,8.95
2023-01-13T14:23:28.259Z,9.15
2023-01-13T14:25:55.885Z,8.25
2023-01-13T14:28:33.902Z,10.25
2023-01-13T14:31:01.301Z,14.85
2023-01-13T14:33:41.080Z,13.75
2023-01-13T14:36:13.716Z,8.05
2023-01-13T14:38:40.760Z,13.63
2023-01-13T14:41:28.348Z,10.40
2023-01-13T14:43:59.191Z,9.93
2023-01-13T14:46:39.573Z,13.75
2023-01-13T14:49:32.130Z,14.25
2023-01-13T14:55:10.097Z,11.80
2023-01-13T14:57:41.586Z,10.40
2023-01-13T15:00:20.575Z,10.60
2023-01-13T15:02:47.158Z,9.65
2023-01-13T15:05:19.741Z,7.28
2023-01-13T15:08:05.170Z,17.15
2023-01-13T15:10:41.585Z,11.18
2023-01-13T15:13:24.206Z,9.23
2023-01-13T15:15:55.785Z,12.05
2023-01-13T15:18:22.465Z,5.00
2023-01-13T15:20:50.782Z,15.52
2023-01-13T15:23:18.582Z,13.30
2023-01-13T15:25:46.017Z,13.02
2023-01-13T15:28:21.508Z,11.23
2023-01-13T15:30:51.535Z,11.18
2023-01-13T15:33:18.459Z,10.80
2023-01-13T15:35:50.196Z,7.63
2023-01-13T15:38:20.064Z,9.50
2023-01-13T15:40:47.808Z,12.00
2023-01-13T15:43:35.264Z,7.78
2023-01-13T15:46:22.493Z,7.40
2023-01-13T15:48:51.212Z,7.57
2023-01-13T15:51:21.223Z,8.40
2023-01-13T15:53:47.674Z,14.23
2023-01-13T15:56:39.073Z,8.35
2023-01-13T15:59:16.408Z,8.95
2023-01-13T16:01:43.040Z,10.50
2023-01-13T16:04:09.827Z,11.00
2023-01-13T16:06:38.167Z,10.82
2023-01-13T16:09:05.453Z,8.70
2023-01-13T16:11:32.063Z,13.48
2023-01-13T16:13:59.049Z,14.23
2023-01-13T16:16:27.853Z,8.60
2023-01-13T16:18:54.977Z,10.18
2023-01-13T16:21:24.494Z,10.13
2023-01-13T16:23:51.699Z,13.40
2023-01-13T16:26:25.003Z,6.32
2023-01-13T16:28:53.742Z,12.85
2023-01-13T16:31:31.613Z,10.27
2023-01-13T16:34:02.200Z,12.60
2023-01-13T16:36:30.476Z,8.88
2023-01-13T16:38:57.428Z,7.03
2023-01-13T16:41:24.981Z,12.82
2023-01-13T16:43:51.838Z,9.45
2023-01-13T16:46:19.835Z,7.35
2023-01-13T16:48:46.942Z,8.65
2023-01-13T16:51:13.448Z,5.63
2023-01-13T16:53:40.170Z,11.70
2023-01-13T16:56:26.963Z,10.75
2023-01-13T16:58:56.194Z,11.13
2023-01-13T17:01:29.075Z,9.27
2023-01-13T17:03:57.024Z,8.55
2023-01-13T17:06:41.545Z,9.05
2023-01-13T17:09:15.474Z,7.97
2023-01-13T17:11:41.803Z,10.73
2023-01-13T17:14:19.355Z,6.30
2023-01-13T17:16:46.373Z,9.43
2023-01-13T17:19:13.744Z,9.82
2023-01-13T17:21:40.513Z,9.00
2023-01-13T17:24:08.011Z,8.27
2023-01-13T17:26:44.100Z,13.88
2023-01-13T17:29:16.285Z,5.70
2023-01-13T17:34:11.316Z,5.82
2023-01-13T17:36:37.793Z,4.22
2023-01-13T17:39:04.344Z,4.72
2023-01-13T17:41:30.959Z,6.95
2023-01-13T17:43:57.346Z,4.22
2023-01-13T17:46:24.101Z,6.25
2023-01-13T17:48:52.737Z,6.50
2023-01-13T17:51:20.283Z,7.75
2023-01-13T17:53:46.766Z,6.38
2023-01-13T17:56:15.221Z,7.22
2023-01-13T17:58:41.939Z,6.45
2023-01-13T18:01:15.291Z,6.60
2023-01-13T18:03:41.824Z,7.22
2023-01-13T18:06:14.788Z,8.15
2023-01-13T18:08:41.245Z,12.07
2023-01-13T18:11:07.848Z,8.15
2023-01-13T18:13:35.256Z,10.25
2023-01-13T18:16:13.314Z,9.95
2023-01-13T18:18:41.721Z,7.13
2023-01-13T18:21:35.975Z,9.95
2023-01-13T18:24:21.122Z,10.70
2023-01-13T18:27:05.974Z,10.57
2023-01-13T18:29:32.432Z,16.30
2023-01-13T18:31:58.872Z,16.30
2023-01-13T18:34:25.307Z,8.82
2023-01-13T18:36:51.747Z,8.65
2023-01-13T18:39:18.377Z,6.28
2023-01-13T18:42:03.000Z,7.60
2023-01-13T18:44:29.373Z,7.65
2023-01-13T18:46:55.855Z,6.85
2023-01-13T18:49:22.463Z,7.03
2023-01-13T18:51:48.976Z,14.30
2023-01-13T18:54:15.482Z,17.08
2023-01-13T18:56:42.073Z,7.93
2023-01-13T18:59:08.489Z,8.00
2023-01-13T19:01:36.929Z,7.35
2023-01-13T19:04:10.081Z,12.73
2023-01-13T19:06:39.611Z,12.95
2023-01-13T19:09:10.965Z,8.52
2023-01-13T19:11:37.739Z,7.70
2023-01-13T19:14:04.237Z,10.32
2023-01-13T19:16:30.610Z,12.00
2023-01-13T19:18:57.023Z,8.00
2023-01-13T19:21:24.779Z,6.00
2023-01-13T19:23:56.216Z,14.30
2023-01-13T19:26:22.865Z,16.15
2023-01-13T19:28:50.363Z,5.97
2023-01-13T19:31:17.169Z,8.15
2023-01-13T19:33:43.682Z,11.07
2023-01-13T19:36:11.417Z,10.27
2023-01-13T19:38:38.211Z,10.18
2023-01-13T19:41:11.683Z,7.28
2023-01-13T19:43:56.796Z,8.98
2023-01-13T19:46:26.107Z,8.15
2023-01-13T19:48:55.217Z,8.10
2023-01-13T19:51:21.704Z,6.72
2023-01-13T19:53:48.210Z,11.60
2023-01-13T19:56:15.248Z,7.10
2023-01-13T19:58:42.136Z,7.25
2023-01-13T20:01:10.118Z,5.95
2023-01-13T20:03:37.721Z,9.85
2023-01-13T20:06:08.781Z,5.63
2023-01-13T20:08:35.218Z,6.28
2023-01-13T20:11:21.404Z,10.27
2023-01-13T20:13:49.575Z,9.88
2023-01-13T20:16:16.067Z,7.10
2023-01-13T20:18:42.495Z,7.30
2023-01-13T20:21:09.341Z,6.55
2023-01-13T20:23:35.985Z,7.32
2023-01-13T20:26:02.555Z,9.43
2023-01-13T20:28:29.145Z,9.10
2023-01-13T20:30:58.206Z,8.07
2023-01-13T20:33:24.640Z,10.15
2023-01-13T20:35:59.467Z,8.23
2023-01-13T20:38:25.922Z,5.45
2023-01-13T20:41:21.748Z,7.57
2023-01-13T20:43:57.021Z,10.68
2023-01-13T20:46:28.030Z,7.57
2023-01-13T20:48:55.027Z,7.55
2023-01-13T20:51:23.815Z,11.40
2023-01-13T20:53:50.257Z,8.70
2023-01-13T20:56:17.781Z,9.43
2023-01-13T20:58:44.162Z,11.13
2023-01-13T21:01:10.730Z,10.88
2023-01-13T21:03:37.167Z,10.10
2023-01-13T21:06:03.761Z,15.48
2023-01-13T21:08:30.221Z,17.40
2023-01-13T21:11:05.972Z,11.20
2023-01-13T21:13:50.899Z,6.70
2023-01-13T21:16:17.416Z,10.63
2023-01-13T21:19:02.266Z,9.98
2023-01-13T21:21:28.789Z,8.32
2023-01-13T21:23:55.405Z,10.95
2023-01-13T21:26:22.167Z,13.05
2023-01-13T21:28:50.099Z,12.32
2023-01-13T21:31:17.745Z,11.90
2023-01-13T21:33:44.891Z,17.00
2023-01-13T21:36:15.543Z,16.95
2023-01-13T21:38:42.290Z,17.13
2023-01-13T21:41:09.538Z,14.00
2023-01-13T21:43:56.244Z,9.75
2023-01-13T21:46:42.741Z,11.75
2023-01-13T21:49:09.574Z,8.80
2023-01-13T21:51:36.557Z,14.55
2023-01-13T21:54:02.974Z,10.73
2023-01-13T21:56:29.317Z,9.93
2023-01-13T21:58:58.672Z,12.70
2023-01-13T22:01:25.257Z,11.07
2023-01-13T22:04:10.314Z,10.95
2023-01-13T22:06:36.785Z,8.48
2023-01-13T22:09:03.338Z,9.02
2023-01-13T22:11:30.051Z,14.18
2023-01-13T22:14:06.490Z,14.90
2023-01-13T22:16:39.173Z,10.63
2023-01-13T22:19:07.407Z,9.60
2023-01-13T22:21:34.388Z,9.15
2023-01-13T22:24:01.555Z,13.77
2023-01-13T22:26:28.087Z,12.88
2023-01-13T22:28:55.236Z,7.30
2023-01-13T22:31:23.848Z,12.63
2023-01-13T22:33:56.399Z,13.00
2023-01-13T22:36:26.244Z,27.17
2023-01-13T22:38:54.773Z,7.85
2023-01-13T22:41:21.198Z,9.32
2023-01-13T22:43:47.620Z,7.30
2023-01-13T22:46:14.624Z,10.88
2023-01-13T22:48:41.280Z,7.60
2023-01-13T22:51:09.086Z,23.45
2023-01-13T22:53:36.608Z,9.50
2023-01-13T22:56:04.415Z,13.50
2023-01-13T22:58:31.068Z,8.18
2023-01-13T23:01:08.115Z,13.48
2023-01-13T23:03:34.513Z,9.68
2023-01-13T23:06:01.700Z,11.57
2023-01-13T23:08:28.162Z,9.45
2023-01-13T23:11:04.139Z,10.75
2023-01-13T23:13:31.035Z,13.05
2023-01-13T23:16:03.214Z,6.63
2023-01-13T23:20:56.141Z,8.07
2023-01-13T23:23:24.886Z,9.20
2023-01-13T23:25:53.559Z,10.15
2023-01-13T23:28:21.070Z,13.95
2023-01-13T23:30:47.976Z,16.58
2023-01-13T23:33:14.738Z,10.80
2023-01-13T23:35:41.258Z,10.18
2023-01-13T23:38:07.686Z,12.60
2023-01-13T23:40:34.987Z,13.90
2023-01-13T23:43:01.465Z,12.60
2023-01-13T23:45:27.859Z,11.90
2023-01-13T23:47:55.816Z,6.72
2023-01-13T23:50:22.378Z,9.73
2023-01-13T23:52:48.791Z,9.95
2023-01-13T23:55:15.247Z,9.63
2023-01-13T23:57:44.522Z,10.23
